Time;durP1;ratioP1;P1;durP2;ratioP2;P2;SDS_P1;SDS_P2;PMS_P1;PMS_P2;Temp;Humidity;BMP_temperature;BMP_pressure;BME280_temperature;BME280_humidity;BME280_pressure;Samples;Min_cycle;Max_cycle;Signal;HPM_P1;HPM_P2
2022/09/09 00:01:21;;;;;;;;;4.00;3.00;;;;;23.45;39.67;100521.75;110510;1263;13232;-71
2022/09/09 00:03:49;;;;;;;;;2.00;2.00;;;;;23.43;39.79;100523.42;110434;1264;13450;-71
2022/09/09 00:06:18;;;;;;;;;3.00;3.00;;;;;23.42;39.88;100522.99;110422;1264;13806;-71
2022/09/09 00:08:46;;;;;;;;;3.67;3.67;;;;;23.42;39.88;100520.98;110438;1263;13223;-71
2022/09/09 00:11:14;;;;;;;;;2.50;2.50;;;;;23.42;39.99;100520.80;110485;1263;13316;-71
2022/09/09 00:13:42;;;;;;;;;4.00;3.00;;;;;23.42;40.03;100524.12;110247;1264;13192;-73
2022/09/09 00:16:10;;;;;;;;;2.00;2.00;;;;;23.43;40.11;100520.77;110500;1263;13111;-72
2022/09/09 00:18:37;;;;;;;;;3.00;3.00;;;;;23.42;40.16;100521.59;110427;1264;13244;-73
2022/09/09 00:21:05;;;;;;;;;4.00;3.33;;;;;23.43;40.17;100520.55;110466;1264;14286;-71
2022/09/09 00:23:33;;;;;;;;;3.00;3.00;;;;;23.43;40.15;100518.20;110422;1264;16794;-71
2022/09/09 00:26:01;;;;;;;;;3.00;2.00;;;;;23.44;40.30;100518.80;110451;1264;13131;-71
2022/09/09 00:28:30;;;;;;;;;2.33;2.33;;;;;23.43;40.43;100519.13;110470;1264;13137;-71
2022/09/09 00:30:58;;;;;;;;;2.00;2.00;;;;;23.42;40.37;100522.44;110437;1264;14011;-71
2022/09/09 00:33:25;;;;;;;;;3.00;3.00;;;;;23.43;40.42;100524.02;110467;1264;13671;-71
2022/09/09 00:35:53;;;;;;;;;3.00;3.00;;;;;23.42;40.48;100522.48;110355;1264;13966;-71
2022/09/09 00:38:23;;;;;;;;;3.00;3.00;;;;;23.42;40.59;100525.43;110476;1264;18017;-72
2022/09/09 00:40:50;;;;;;;;;3.67;3.00;;;;;23.42;40.61;100520.59;110370;1264;14091;-73
2022/09/09 00:43:18;;;;;;;;;3.00;3.00;;;;;23.43;40.64;100516.56;110361;1264;13195;-72
2022/09/09 00:45:45;;;;;;;;;3.00;3.00;;;;;23.42;40.75;100515.55;110450;1264;13160;-72
2022/09/09 00:48:13;;;;;;;;;2.00;2.00;;;;;23.43;40.70;100515.27;110455;1264;13496;-72
2022/09/09 00:50:40;;;;;;;;;3.00;3.00;;;;;23.43;40.72;100510.67;110435;1264;14668;-72
2022/09/09 00:53:07;;;;;;;;;3.00;3.00;;;;;23.45;40.79;100512.49;110400;1264;13345;-72
2022/09/09 00:55:35;;;;;;;;;2.67;2.67;;;;;23.42;40.80;100509.48;110464;1264;18075;-72
2022/09/09 00:58:03;;;;;;;;;2.00;2.00;;;;;23.43;40.78;100510.88;110458;1264;14295;-71
2022/09/09 01:00:30;;;;;;;;;3.00;3.00;;;;;23.44;40.77;100517.16;110439;1264;14387;-72
2022/09/09 01:02:57;;;;;;;;;3.00;3.00;;;;;23.44;40.90;100522.63;110433;1264;14287;-73
2022/09/09 01:05:26;;;;;;;;;3.00;3.00;;;;;23.44;40.92;100522.63;110457;1264;14388;-73
2022/09/09 01:07:54;;;;;;;;;5.00;5.00;;;;;23.44;40.92;100523.68;110433;1264;14528;-71
2022/09/09 01:10:21;;;;;;;;;3.00;3.00;;;;;23.42;41.03;100518.24;110489;1264;13123;-72
2022/09/09 01:12:49;;;;;;;;;3.00;3.00;;;;;23.42;41.05;100525.15;110431;1264;14310;-71
2022/09/09 01:15:17;;;;;;;;;3.00;3.00;;;;;23.43;41.11;100521.27;110415;1264;18262;-73
2022/09/09 01:17:44;;;;;;;;;3.00;3.00;;;;;23.42;41.18;100520.84;110390;1264;12911;-72
2022/09/09 01:20:12;;;;;;;;;3.00;3.00;;;;;23.42;41.23;100521.23;110413;1264;13716;-72
2022/09/09 01:22:40;;;;;;;;;3.50;3.50;;;;;23.42;41.19;100524.64;110260;1264;13261;-72
2022/09/09 01:25:08;;;;;;;;;3.00;3.00;;;;;23.43;41.25;100525.23;110423;1265;13187;-70
2022/09/09 01:27:35;;;;;;;;;5.00;4.00;;;;;23.44;41.23;100528.31;110420;1264;13861;-71
2022/09/09 01:30:03;;;;;;;;;3.67;3.67;;;;;23.43;41.27;100525.83;110446;1264;14869;-72
2022/09/09 01:32:30;;;;;;;;;3.33;3.33;;;;;23.43;41.33;100523.97;110466;1264;13143;-71
2022/09/09 01:34:57;;;;;;;;;5.00;5.00;;;;;23.42;41.31;100522.52;110436;1264;14379;-71
2022/09/09 01:37:24;;;;;;;;;3.00;3.00;;;;;23.41;41.41;100525.51;110483;1263;13141;-73
2022/09/09 01:39:52;;;;;;;;;3.33;3.00;;;;;23.41;41.48;100530.46;110455;1264;15297;-72
2022/09/09 01:42:20;;;;;;;;;3.00;3.00;;;;;23.40;41.49;100531.67;110436;1264;13297;-71
2022/09/09 01:44:47;;;;;;;;;2.33;2.33;;;;;23.40;41.50;100532.85;110410;1263;13736;-72
2022/09/09 01:47:14;;;;;;;;;3.50;3.50;;;;;23.41;41.54;100537.25;110384;1263;13922;-72
2022/09/09 01:49:42;;;;;;;;;4.00;4.00;;;;;23.42;41.51;100536.38;110542;1264;13235;-72
2022/09/09 01:52:10;;;;;;;;;3.50;3.50;;;;;23.42;41.55;100538.39;110481;1264;13256;-71
2022/09/09 01:54:37;;;;;;;;;5.00;5.00;;;;;23.41;41.60;100543.02;110448;1264;13177;-71
2022/09/09 01:57:05;;;;;;;;;3.00;3.00;;;;;23.42;41.64;100535.67;110527;1264;13232;-70
2022/09/09 01:59:32;;;;;;;;;3.00;3.00;;;;;23.41;41.64;100535.52;110419;1264;14678;-71
2022/09/09 02:02:00;;;;;;;;;3.00;3.00;;;;;23.41;41.67;100531.02;110394;1265;16624;-66
2022/09/09 02:04:27;;;;;;;;;3.50;3.00;;;;;23.41;41.67;100531.54;110471;1264;13179;-72
2022/09/09 02:06:55;;;;;;;;;4.00;4.00;;;;;23.39;41.74;100524.52;110418;1264;13091;-72
2022/09/09 02:09:23;;;;;;;;;4.00;4.00;;;;;23.41;41.74;100526.48;110457;1264;14719;-72
2022/09/09 02:11:50;;;;;;;;;3.33;3.33;;;;;23.40;41.82;100524.23;110430;1264;14339;-71
2022/09/09 02:14:18;;;;;;;;;3.00;3.00;;;;;23.40;41.85;100521.46;110458;1264;15640;-73
2022/09/09 02:16:45;;;;;;;;;3.00;3.00;;;;;23.39;41.83;100521.95;110450;1263;13170;-72
2022/09/09 02:19:13;;;;;;;;;6.00;4.00;;;;;23.40;41.85;100522.25;110471;1264;13129;-72
2022/09/09 02:21:40;;;;;;;;;4.00;4.00;;;;;23.38;41.98;100523.55;110471;1264;13216;-72
2022/09/09 02:24:10;;;;;;;;;5.50;5.00;;;;;23.39;41.88;100520.20;110289;1264;14615;-71
2022/09/09 02:26:37;;;;;;;;;5.00;3.00;;;;;23.39;41.88;100515.02;110477;1264;13865;-72
2022/09/09 02:29:05;;;;;;;;;5.67;5.00;;;;;23.39;41.97;100513.88;110284;1265;13108;-71
2022/09/09 02:31:32;;;;;;;;;4.33;4.33;;;;;23.38;41.95;100515.77;110451;1263;13243;-72
2022/09/09 02:34:00;;;;;;;;;4.00;4.00;;;;;23.39;41.96;100514.30;110428;1264;13957;-72
2022/09/09 02:36:28;;;;;;;;;5.00;5.00;;;;;23.39;41.99;100514.42;110456;1264;13295;-72
2022/09/09 02:38:56;;;;;;;;;5.00;5.00;;;;;23.40;42.06;100511.83;110462;1264;13201;-71
2022/09/09 02:41:24;;;;;;;;;7.00;6.00;;;;;23.40;42.06;100511.61;110435;1263;14364;-71
2022/09/09 02:43:52;;;;;;;;;5.00;3.00;;;;;23.41;42.04;100509.01;110432;1264;13175;-72
2022/09/09 02:46:20;;;;;;;;;5.33;4.00;;;;;23.40;42.11;100512.58;110476;1263;13181;-72
2022/09/09 02:48:49;;;;;;;;;3.00;3.00;;;;;23.38;42.09;100516.31;110434;1264;14193;-72
2022/09/09 02:51:17;;;;;;;;;5.67;5.00;;;;;23.38;42.20;100515.39;110451;1264;14123;-72
2022/09/09 02:53:44;;;;;;;;;4.00;4.00;;;;;23.38;42.19;100516.58;110460;1264;14083;-72
2022/09/09 02:56:12;;;;;;;;;6.00;5.00;;;;;23.38;42.22;100517.59;110473;1264;14918;-73
2022/09/09 02:58:39;;;;;;;;;4.00;4.00;;;;;23.38;42.30;100517.95;110497;1264;13076;-73
2022/09/09 03:01:08;;;;;;;;;3.00;3.00;;;;;23.38;42.30;100522.88;110464;1264;14667;-72
2022/09/09 03:03:36;;;;;;;;;6.00;5.00;;;;;23.36;42.41;100519.59;110339;1264;13816;-72
2022/09/09 03:06:05;;;;;;;;;3.67;3.00;;;;;23.37;42.32;100518.67;110377;1264;13817;-72
2022/09/09 03:08:32;;;;;;;;;3.50;3.50;;;;;23.38;42.34;100519.77;110409;1264;15051;-70
2022/09/09 03:11:01;;;;;;;;;5.00;4.33;;;;;23.38;42.30;100521.58;110415;1264;13215;-71
2022/09/09 03:13:28;;;;;;;;;3.00;3.00;;;;;23.38;42.28;100521.23;110462;1264;16642;-73
2022/09/09 03:15:56;;;;;;;;;3.00;3.00;;;;;23.38;42.31;100522.34;110434;1263;16693;-72
2022/09/09 03:18:25;;;;;;;;;6.00;6.00;;;;;23.38;42.34;100522.84;110486;1264;13425;-72
2022/09/09 03:20:53;;;;;;;;;6.00;4.00;;;;;23.38;42.33;100525.36;110458;1264;14175;-71
2022/09/09 03:23:21;;;;;;;;;4.33;4.33;;;;;23.38;42.37;100523.73;110365;1264;13327;-71
2022/09/09 03:25:49;;;;;;;;;5.00;5.00;;;;;23.39;42.36;100526.04;110464;1264;13302;-71
2022/09/09 03:28:16;;;;;;;;;5.00;4.33;;;;;23.38;42.36;100524.70;110459;1264;12746;-71
2022/09/09 03:30:44;;;;;;;;;3.67;3.67;;;;;23.36;42.48;100526.94;110434;1263;14385;-71
2022/09/09 03:33:12;;;;;;;;;6.00;5.67;;;;;23.37;42.44;100527.72;110445;1264;14336;-71
2022/09/09 03:35:41;;;;;;;;;3.00;3.00;;;;;23.37;42.42;100526.96;110348;1264;14412;-72
2022/09/09 03:38:09;;;;;;;;;2.33;2.33;;;;;23.37;42.46;100527.52;110444;1264;17984;-72
2022/09/09 03:40:36;;;;;;;;;3.00;3.00;;;;;23.37;42.55;100530.79;110466;1264;13261;-73
2022/09/09 03:43:04;;;;;;;;;3.00;3.00;;;;;23.38;42.53;100531.55;110299;1264;15371;-72
2022/09/09 03:45:31;;;;;;;;;2.67;2.67;;;;;23.36;42.51;100529.77;110436;1264;12823;-71
2022/09/09 03:47:59;;;;;;;;;5.00;3.00;;;;;23.37;42.44;100530.41;110424;1264;15216;-72
2022/09/09 03:50:27;;;;;;;;;3.00;3.00;;;;;23.36;42.62;100531.45;110387;1264;14197;-73
2022/09/09 03:52:54;;;;;;;;;3.00;3.00;;;;;23.35;42.63;100527.95;110448;1264;14254;-73
2022/09/09 03:55:22;;;;;;;;;3.00;3.00;;;;;23.36;42.60;100530.36;110482;1263;13078;-72
2022/09/09 03:57:49;;;;;;;;;5.00;5.00;;;;;23.35;42.56;100527.39;110363;1264;14792;-72
2022/09/09 04:00:17;;;;;;;;;4.00;4.00;;;;;23.36;42.65;100528.59;110408;1264;17921;-72
2022/09/09 04:02:45;;;;;;;;;3.00;3.00;;;;;23.35;42.69;100531.39;110309;1264;13213;-72
2022/09/09 04:05:14;;;;;;;;;2.33;2.00;;;;;23.34;42.70;100529.79;110252;1264;14049;-71
2022/09/09 04:07:42;;;;;;;;;3.00;3.00;;;;;23.34;42.74;100537.23;110305;1264;14070;-72
2022/09/09 04:10:09;;;;;;;;;2.00;2.00;;;;;23.34;42.73;100532.27;110389;1264;14275;-71
2022/09/09 04:12:37;;;;;;;;;3.00;3.00;;;;;23.34;42.83;100530.88;110432;1264;14464;-72
2022/09/09 04:15:05;;;;;;;;;4.00;3.00;;;;;23.33;42.82;100530.80;110431;1263;14441;-72
2022/09/09 04:17:33;;;;;;;;;3.00;3.00;;;;;23.33;42.81;100529.87;110460;1264;14596;-73
2022/09/09 04:20:01;;;;;;;;;2.00;2.00;;;;;23.32;42.81;100530.00;110408;1263;14462;-73
2022/09/09 04:22:28;;;;;;;;;3.67;3.67;;;;;23.33;42.85;100531.55;110484;1264;13193;-72
2022/09/09 04:24:56;;;;;;;;;2.00;2.00;;;;;23.33;42.84;100531.34;110434;1264;14834;-72
2022/09/09 04:27:23;;;;;;;;;3.00;3.00;;;;;23.34;42.91;100528.36;110478;1264;14262;-72
2022/09/09 04:29:50;;;;;;;;;5.00;5.00;;;;;23.35;42.92;100526.92;110409;1264;13649;-71
2022/09/09 04:32:18;;;;;;;;;3.00;3.00;;;;;23.34;42.94;100531.73;110467;1264;13233;-71
2022/09/09 04:34:47;;;;;;;;;2.00;2.00;;;;;23.34;42.92;100532.85;110494;1264;13202;-71
2022/09/09 04:37:15;;;;;;;;;3.67;3.67;;;;;23.34;42.96;100529.45;110426;1264;14339;-72
2022/09/09 04:39:42;;;;;;;;;2.00;2.00;;;;;23.35;42.93;100529.11;110490;1264;14419;-71
2022/09/09 04:42:12;;;;;;;;;2.00;2.00;;;;;23.35;42.85;100535.02;110486;1263;14014;-71
2022/09/09 04:44:40;;;;;;;;;3.00;3.00;;;;;23.36;42.94;100536.75;110477;1264;15165;-72
2022/09/09 04:47:09;;;;;;;;;2.00;2.00;;;;;23.36;42.93;100536.83;110488;1263;13093;-72
2022/09/09 04:49:38;;;;;;;;;2.00;2.00;;;;;23.36;42.98;100537.84;110510;1264;13295;-74
2022/09/09 04:52:05;;;;;;;;;2.00;2.00;;;;;23.37;42.96;100535.58;110416;1263;13351;-72
2022/09/09 04:54:33;;;;;;;;;2.00;2.00;;;;;23.37;43.00;100534.66;110378;1264;13145;-71
2022/09/09 04:57:00;;;;;;;;;3.00;3.00;;;;;23.40;43.23;100537.70;110249;1265;15484;-71
2022/09/09 04:59:28;;;;;;;;;5.33;5.33;;;;;23.44;43.31;100539.04;110443;1264;13350;-73
2022/09/09 05:01:55;;;;;;;;;4.33;3.00;;;;;23.46;43.84;100539.98;110446;1264;13069;-73
2022/09/09 05:04:23;;;;;;;;;3.67;3.67;;;;;23.52;44.63;100539.84;110474;1264;12813;-72
2022/09/09 05:06:50;;;;;;;;;3.00;3.00;;;;;23.51;44.81;100543.21;110403;1264;13285;-71
2022/09/09 05:09:18;;;;;;;;;3.00;3.00;;;;;23.49;44.91;100546.11;110453;1264;13098;-72
2022/09/09 05:11:46;;;;;;;;;3.67;3.67;;;;;23.46;45.03;100549.27;110435;1264;13310;-71
2022/09/09 05:14:14;;;;;;;;;3.00;3.00;;;;;23.45;45.13;100546.11;110458;1264;13118;-72
2022/09/09 05:16:44;;;;;;;;;4.00;4.00;;;;;23.42;45.29;100548.16;106174;1264;5519620;-73
2022/09/09 05:19:12;;;;;;;;;6.00;4.33;;;;;23.41;45.24;100552.14;110317;1263;13129;-71
2022/09/09 05:21:41;;;;;;;;;3.00;3.00;;;;;23.41;45.27;100558.52;110382;1264;13709;-71
2022/09/09 05:24:08;;;;;;;;;5.00;5.00;;;;;23.42;45.39;100556.27;110399;1264;13099;-71
2022/09/09 05:26:36;;;;;;;;;3.00;3.00;;;;;23.42;45.29;100555.64;110334;1264;15106;-71
2022/09/09 05:29:03;;;;;;;;;5.00;5.00;;;;;23.43;45.30;100556.11;110454;1264;13202;-72
2022/09/09 05:31:41;;;;;;;;;5.00;5.00;;;;;23.42;45.31;100553.15;110549;1263;13174;-72
2022/09/09 05:34:08;;;;;;;;;5.00;5.00;;;;;23.39;45.37;100555.63;110435;1264;14013;-72
2022/09/09 05:36:36;;;;;;;;;7.33;5.67;;;;;23.39;45.39;100560.50;110358;1264;14232;-71
2022/09/09 05:39:03;;;;;;;;;7.33;6.33;;;;;23.37;45.59;100560.67;110380;1264;14582;-72
2022/09/09 05:41:31;;;;;;;;;6.00;6.00;;;;;23.36;45.60;100558.80;110258;1264;13711;-72
2022/09/09 05:44:00;;;;;;;;;7.33;6.67;;;;;23.33;45.63;100559.23;110257;1264;14610;-73
2022/09/09 05:46:28;;;;;;;;;6.33;6.00;;;;;23.32;45.67;100560.59;110500;1264;13216;-73
2022/09/09 05:48:55;;;;;;;;;7.00;7.00;;;;;23.33;45.66;100562.17;110447;1264;14555;-70
2022/09/09 05:51:24;;;;;;;;;8.00;7.50;;;;;23.37;45.82;100561.27;110392;1264;13758;-70
2022/09/09 05:53:52;;;;;;;;;10.00;8.00;;;;;23.40;46.22;100562.65;110415;1264;16845;-70
2022/09/09 05:56:19;;;;;;;;;8.00;8.00;;;;;23.38;46.20;100565.89;110404;1264;13988;-71
2022/09/09 05:58:49;;;;;;;;;8.67;8.67;;;;;23.39;46.38;100561.00;110475;1264;13234;-71
2022/09/09 06:01:16;;;;;;;;;11.00;10.50;;;;;23.38;46.35;100559.16;110432;1264;14175;-73
2022/09/09 06:03:44;;;;;;;;;11.33;10.00;;;;;23.37;46.45;100563.64;110420;1263;13130;-71
2022/09/09 06:06:11;;;;;;;;;7.33;7.33;;;;;23.36;46.46;100559.92;110251;1264;14640;-69
2022/09/09 06:08:39;;;;;;;;;7.00;7.00;;;;;23.39;46.48;100561.52;110417;1264;15311;-71
2022/09/09 06:11:06;;;;;;;;;11.00;10.50;;;;;23.38;46.68;100566.48;110374;1264;14583;-70
2022/09/09 06:13:35;;;;;;;;;11.67;10.67;;;;;23.36;46.73;100565.44;110591;1264;13174;-70
2022/09/09 06:16:02;;;;;;;;;12.00;11.00;;;;;23.36;46.89;100569.95;110700;1263;12958;-70
2022/09/09 06:18:30;;;;;;;;;7.00;7.00;;;;;23.34;46.92;100569.51;110421;1264;14408;-69
2022/09/09 06:20:57;;;;;;;;;8.00;8.00;;;;;23.35;46.91;100574.30;110451;1264;14333;-71
2022/09/09 06:23:25;;;;;;;;;7.67;7.67;;;;;23.38;47.25;100577.70;110430;1264;15117;-70
2022/09/09 06:25:52;;;;;;;;;7.00;6.00;;;;;23.41;48.00;100579.32;110478;1264;13015;-71
2022/09/09 06:28:20;;;;;;;;;6.33;6.33;;;;;23.43;48.20;100583.51;110479;1264;13068;-70
2022/09/09 06:30:47;;;;;;;;;6.33;6.00;;;;;23.44;48.44;100582.42;110433;1264;13638;-71
2022/09/09 06:33:15;;;;;;;;;6.67;6.67;;;;;23.45;48.31;100582.98;110381;1263;13444;-70
2022/09/09 06:35:43;;;;;;;;;80.00;56.67;;;;;23.48;48.09;100584.44;110481;1264;14292;-69
2022/09/09 06:38:10;;;;;;;;;79.33;60.00;;;;;23.50;47.96;100585.50;110360;1264;12631;-69
2022/09/09 06:40:38;;;;;;;;;79.67;55.67;;;;;23.52;47.95;100583.87;110443;1264;11984;-69
2022/09/09 06:43:05;;;;;;;;;100.33;78.33;;;;;23.55;47.74;100583.35;110246;1264;10494;-69
2022/09/09 06:45:33;;;;;;;;;83.00;62.00;;;;;23.58;47.64;100586.43;110416;1264;13933;-70
2022/09/09 06:48:00;;;;;;;;;68.00;49.00;;;;;23.57;47.69;100592.27;110377;1264;13906;-68
2022/09/09 06:50:28;;;;;;;;;57.00;43.00;;;;;23.54;47.63;100595.92;110419;1264;10998;-71
2022/09/09 06:52:55;;;;;;;;;48.67;39.00;;;;;23.57;47.79;100596.29;110424;1264;10423;-69
2022/09/09 06:55:22;;;;;;;;;48.00;39.00;;;;;23.55;47.67;100602.84;110365;1264;13525;-70
2022/09/09 06:57:51;;;;;;;;;46.33;37.00;;;;;23.59;47.97;100603.24;110335;1263;14383;-70
2022/09/09 07:00:19;;;;;;;;;38.00;32.33;;;;;23.60;47.89;100607.13;110420;1264;14050;-68
2022/09/09 07:02:46;;;;;;;;;34.33;28.67;;;;;23.59;47.81;100609.98;110186;1264;13240;-69
2022/09/09 07:05:15;;;;;;;;;33.00;29.33;;;;;23.58;47.66;100606.39;110130;1264;14343;-69
2022/09/09 07:07:42;;;;;;;;;26.33;21.67;;;;;23.56;47.32;100604.02;110434;1264;13163;-70
2022/09/09 07:10:10;;;;;;;;;21.67;16.33;;;;;23.52;47.42;100599.95;110381;1264;13355;-69
2022/09/09 07:12:38;;;;;;;;;18.50;16.00;;;;;23.49;47.51;100604.60;110295;1264;13185;-68
2022/09/09 07:15:05;;;;;;;;;25.50;17.00;;;;;23.48;47.56;100608.55;110252;1264;14350;-68
2022/09/09 07:17:33;;;;;;;;;19.00;16.67;;;;;23.49;47.56;100606.76;110335;1264;14233;-71
2022/09/09 07:20:01;;;;;;;;;14.33;12.67;;;;;23.52;47.45;100609.50;110418;1264;13212;-70
2022/09/09 07:22:29;;;;;;;;;13.00;12.00;;;;;23.55;47.43;100610.04;110387;1263;13299;-70
2022/09/09 07:24:57;;;;;;;;;15.33;12.33;;;;;23.56;47.72;100605.54;110450;1264;13142;-66
2022/09/09 07:27:24;;;;;;;;;14.33;13.00;;;;;23.55;47.84;100611.85;110344;1264;12182;-68
2022/09/09 07:29:54;;;;;;;;;11.67;11.00;;;;;23.55;47.95;100613.67;110345;1264;15353;-71
2022/09/09 07:32:21;;;;;;;;;12.00;11.00;;;;;23.55;47.89;100618.96;110352;1264;13731;-70
2022/09/09 07:34:50;;;;;;;;;12.67;12.67;;;;;23.55;47.85;100619.48;110386;1264;13549;-70
2022/09/09 07:37:17;;;;;;;;;8.67;8.67;;;;;23.56;47.96;100625.16;110364;1264;15088;-70
2022/09/09 07:39:45;;;;;;;;;11.67;9.00;;;;;23.57;48.12;100620.53;110395;1264;15971;-70
2022/09/09 07:42:13;;;;;;;;;8.00;7.00;;;;;23.58;47.96;100624.70;110425;1263;13167;-70
2022/09/09 07:44:40;;;;;;;;;11.33;10.67;;;;;23.60;47.96;100629.73;110373;1264;14785;-70
2022/09/09 07:47:08;;;;;;;;;9.67;9.67;;;;;23.58;48.13;100628.40;110402;1264;14482;-69
2022/09/09 07:49:35;;;;;;;;;11.00;9.00;;;;;23.57;48.13;100630.50;110489;1264;13139;-70
2022/09/09 07:52:03;;;;;;;;;8.33;8.33;;;;;23.58;48.05;100632.19;110302;1263;18171;-70
2022/09/09 07:54:32;;;;;;;;;11.50;9.00;;;;;23.54;48.30;100631.11;110370;1264;14411;-71
2022/09/09 07:57:00;;;;;;;;;8.00;7.00;;;;;23.54;48.36;100633.86;110433;1264;14928;-68
2022/09/09 07:59:30;;;;;;;;;9.00;8.33;;;;;23.53;48.59;100635.36;110470;1264;13280;-71
2022/09/09 08:01:58;;;;;;;;;12.00;9.00;;;;;23.53;48.60;100634.92;110487;1264;13225;-70
2022/09/09 08:04:26;;;;;;;;;11.00;9.00;;;;;23.55;48.57;100639.01;110446;1264;13251;-71
2022/09/09 08:06:53;;;;;;;;;9.00;8.00;;;;;23.56;48.61;100640.56;110408;1264;13054;-70
2022/09/09 08:09:21;;;;;;;;;11.00;8.00;;;;;23.55;48.63;100643.88;110395;1264;13262;-71
2022/09/09 08:11:49;;;;;;;;;9.00;8.00;;;;;23.54;48.75;100641.44;110220;1264;14797;-71
2022/09/09 08:14:16;;;;;;;;;9.00;9.00;;;;;23.53;48.80;100645.04;110426;1263;12980;-70
2022/09/09 08:16:44;;;;;;;;;9.00;8.33;;;;;23.54;48.93;100648.28;110452;1264;13301;-69
2022/09/09 08:19:11;;;;;;;;;12.00;11.00;;;;;23.54;48.86;100650.56;110464;1262;13898;-70
2022/09/09 08:21:39;;;;;;;;;11.67;10.33;;;;;23.55;48.88;100649.09;110412;1263;13443;-72
2022/09/09 08:24:07;;;;;;;;;10.33;9.67;;;;;23.57;48.73;100654.95;110415;1264;14248;-71
2022/09/09 08:26:35;;;;;;;;;7.67;7.67;;;;;23.59;48.80;100657.83;110476;1264;13186;-70
2022/09/09 08:29:02;;;;;;;;;11.00;9.00;;;;;23.57;48.74;100656.05;110473;1263;13635;-72
2022/09/09 08:31:30;;;;;;;;;10.67;9.00;;;;;23.57;48.61;100656.18;110355;1264;13392;-70
2022/09/09 08:33:57;;;;;;;;;9.00;8.00;;;;;23.56;48.62;100654.29;110408;1263;13222;-70
2022/09/09 08:36:25;;;;;;;;;9.67;8.00;;;;;23.56;48.55;100653.40;110407;1264;13009;-70
2022/09/09 08:38:54;;;;;;;;;11.00;8.00;;;;;23.57;48.59;100659.17;110375;1264;17101;-70
2022/09/09 08:41:22;;;;;;;;;8.00;7.33;;;;;23.56;48.46;100659.29;110431;1264;13178;-71
2022/09/09 08:43:49;;;;;;;;;8.00;8.00;;;;;23.57;48.44;100663.50;110449;1264;13404;-70
2022/09/09 08:46:17;;;;;;;;;10.67;7.67;;;;;23.57;48.41;100667.03;110403;1264;14575;-72
2022/09/09 08:48:45;;;;;;;;;8.00;8.00;;;;;23.57;48.43;100666.74;110310;1262;14794;-70
2022/09/09 08:51:13;;;;;;;;;10.50;8.00;;;;;23.59;48.30;100673.83;110412;1263;14732;-69
2022/09/09 08:53:40;;;;;;;;;8.67;7.00;;;;;23.59;48.33;100673.99;110397;1264;13182;-70
2022/09/09 08:56:08;;;;;;;;;11.00;11.00;;;;;23.60;48.32;100676.22;110240;1264;14280;-70
2022/09/09 08:58:36;;;;;;;;;12.33;10.67;;;;;23.61;48.45;100676.73;110450;1264;13355;-70
2022/09/09 09:01:04;;;;;;;;;11.00;8.33;;;;;23.60;48.59;100675.33;110370;1264;14405;-69
2022/09/09 09:03:32;;;;;;;;;8.00;8.00;;;;;23.62;48.70;100677.49;110375;1264;13304;-68
2022/09/09 09:05:59;;;;;;;;;8.33;8.00;;;;;23.60;48.96;100680.84;110357;1264;13139;-69
2022/09/09 09:08:28;;;;;;;;;8.33;8.33;;;;;23.58;48.93;100681.77;110370;1263;13309;-67
2022/09/09 09:10:56;;;;;;;;;11.50;11.00;;;;;23.56;49.16;100682.31;110385;1264;13135;-69
2022/09/09 09:13:24;;;;;;;;;13.00;12.00;;;;;23.54;49.17;100684.88;110350;1264;13279;-68
2022/09/09 09:15:51;;;;;;;;;12.33;12.00;;;;;23.53;49.25;100681.19;110364;1264;13402;-69
2022/09/09 09:18:19;;;;;;;;;13.00;11.50;;;;;23.53;49.35;100681.61;110336;1264;14833;-69
2022/09/09 09:20:47;;;;;;;;;13.00;11.50;;;;;23.50;49.42;100683.56;110432;1264;13995;-69
2022/09/09 09:23:15;;;;;;;;;12.00;11.00;;;;;23.49;49.50;100686.98;110405;1264;13210;-70
2022/09/09 09:25:44;;;;;;;;;12.00;11.00;;;;;23.50;49.50;100686.22;110483;1264;13131;-70
2022/09/09 09:28:11;;;;;;;;;17.67;15.00;;;;;23.51;49.92;100680.66;110479;1264;13680;-69
2022/09/09 09:30:39;;;;;;;;;14.00;14.00;;;;;23.47;50.27;100682.17;110391;1264;13216;-70
2022/09/09 09:33:06;;;;;;;;;20.00;16.00;;;;;23.33;50.72;100688.52;110362;1264;13959;-71
2022/09/09 09:35:34;;;;;;;;;14.33;13.00;;;;;23.29;51.12;100690.29;110448;1262;13274;-71
2022/09/09 09:38:02;;;;;;;;;12.00;10.00;;;;;23.37;50.95;100694.80;110372;1264;13177;-70
2022/09/09 09:40:30;;;;;;;;;11.50;11.50;;;;;23.41;51.28;100694.38;110469;1263;13270;-70
2022/09/09 09:42:57;;;;;;;;;16.00;16.00;;;;;23.44;51.43;100695.96;110310;1262;13206;-70
2022/09/09 09:45:24;;;;;;;;;14.00;12.33;;;;;23.49;51.25;100696.27;110376;1263;13353;-70
2022/09/09 09:47:52;;;;;;;;;13.00;12.00;;;;;23.51;51.16;100697.45;110277;1264;13272;-71
2022/09/09 09:50:20;;;;;;;;;39.00;35.00;;;;;23.44;51.20;100701.14;110407;1264;13874;-70
2022/09/09 09:52:47;;;;;;;;;86.67;70.00;;;;;23.27;51.59;100707.65;110367;1264;10542;-70
2022/09/09 09:55:15;;;;;;;;;85.67;66.33;;;;;23.14;52.10;100713.20;110364;1264;12360;-71
2022/09/09 09:57:44;;;;;;;;;68.50;54.00;;;;;22.92;52.85;100710.21;110423;1264;11972;-69
2022/09/09 10:00:12;;;;;;;;;51.67;41.67;;;;;22.94;53.12;100712.08;110354;1264;15043;-70
2022/09/09 10:02:40;;;;;;;;;43.00;37.67;;;;;23.01;53.03;100709.51;110380;1264;13884;-69
2022/09/09 10:05:08;;;;;;;;;40.00;36.00;;;;;23.08;52.78;100712.25;110165;1264;14401;-71
2022/09/09 10:07:37;;;;;;;;;35.67;33.33;;;;;23.11;52.75;100710.89;110298;1263;12678;-71
2022/09/09 10:10:05;;;;;;;;;27.00;26.00;;;;;23.11;52.78;100707.98;110313;1264;14485;-70
2022/09/09 10:12:32;;;;;;;;;30.00;27.33;;;;;23.02;53.28;100713.52;110412;1264;14395;-69
2022/09/09 10:14:59;;;;;;;;;27.33;25.33;;;;;22.90;53.51;100709.63;110295;1263;13326;-70
2022/09/09 10:17:27;;;;;;;;;29.33;26.00;;;;;22.73;53.89;100708.26;110436;1264;13300;-70
2022/09/09 10:19:55;;;;;;;;;28.33;25.67;;;;;22.64;54.30;100709.94;110404;1264;13313;-69
2022/09/09 10:22:22;;;;;;;;;28.00;26.00;;;;;22.75;53.99;100704.91;110414;1264;14476;-70
2022/09/09 10:24:50;;;;;;;;;25.67;24.67;;;;;22.75;53.88;100703.95;110400;1263;14397;-71
2022/09/09 10:27:18;;;;;;;;;28.33;24.00;;;;;22.76;53.87;100699.09;110559;1264;15014;-69
2022/09/09 10:29:46;;;;;;;;;28.00;25.00;;;;;22.74;53.98;100701.45;110383;1265;14537;-69
2022/09/09 10:32:13;;;;;;;;;25.67;22.00;;;;;22.68;54.25;100711.42;110306;1264;13174;-69
2022/09/09 10:34:42;;;;;;;;;23.33;21.67;;;;;22.79;54.03;100706.98;110323;1264;13310;-70
2022/09/09 10:37:09;;;;;;;;;26.00;22.67;;;;;22.83;53.98;100708.84;110247;1264;13649;-70
2022/09/09 10:39:36;;;;;;;;;21.67;21.33;;;;;22.75;54.16;100711.17;110368;1264;13514;-70
2022/09/09 10:42:04;;;;;;;;;24.00;22.00;;;;;22.77;54.12;100713.80;110375;1264;14309;-70
2022/09/09 10:44:34;;;;;;;;;26.00;20.67;;;;;22.81;54.03;100718.54;110255;1264;14554;-70
2022/09/09 10:47:01;;;;;;;;;28.67;24.33;;;;;22.66;54.36;100721.98;110278;1264;13185;-72
2022/09/09 10:49:30;;;;;;;;;23.50;21.00;;;;;22.60;54.59;100727.13;110414;1264;14058;-70
2022/09/09 10:51:58;;;;;;;;;22.67;21.33;;;;;22.70;54.40;100726.80;110203;1264;14360;-70
2022/09/09 10:54:27;;;;;;;;;21.00;20.00;;;;;22.76;54.30;100726.87;110323;1264;14145;-71
2022/09/09 10:56:56;;;;;;;;;26.00;22.33;;;;;22.77;54.35;100727.27;110308;1264;14406;-71
2022/09/09 10:59:26;;;;;;;;;22.50;20.00;;;;;22.71;54.50;100735.71;110355;1264;13696;-71
2022/09/09 11:01:53;;;;;;;;;25.33;23.00;;;;;22.71;54.47;100738.66;110438;1264;13248;-70
2022/09/09 11:04:20;;;;;;;;;24.33;22.33;;;;;22.78;54.39;100737.49;110429;1264;13346;-70
2022/09/09 11:06:47;;;;;;;;;24.67;21.00;;;;;22.79;54.37;100735.77;110406;1263;13978;-71
2022/09/09 11:09:15;;;;;;;;;24.00;21.00;;;;;22.77;54.47;100731.64;110385;1264;14479;-71
2022/09/09 11:11:43;;;;;;;;;28.00;25.00;;;;;22.75;54.47;100734.17;110292;1264;13244;-68
2022/09/09 11:14:10;;;;;;;;;30.67;26.00;;;;;22.69;54.70;100736.20;110416;1264;14990;-70